sensor_id;sensor_type;location;lat;lon;timestamp;P1;durP1;ratioP1;P2;durP2;ratioP2
63112;SDS011;49206;48.020;21.378;2023-01-30T00:00:45;33.78;;;18.63;;
63112;SDS011;49206;48.020;21.378;2023-01-30T00:01:51;37.92;;;18.77;;
63112;SDS011;49206;48.020;21.378;2023-01-30T00:02:54;34.80;;;19.35;;
63112;SDS011;49206;48.020;21.378;2023-01-30T00:03:56;38.67;;;18.63;;
63112;SDS011;49206;48.020;21.378;2023-01-30T00:04:59;36.13;;;18.67;;
63112;SDS011;49206;48.020;21.378;2023-01-30T00:06:01;39.15;;;18.85;;
63112;SDS011;49206;48.020;21.378;2023-01-30T00:07:04;37.55;;;19.52;;
63112;SDS011;49206;48.020;21.378;2023-01-30T00:08:06;38.35;;;19.38;;
63112;SDS011;49206;48.020;21.378;2023-01-30T00:09:11;35.28;;;18.23;;
63112;SDS011;49206;48.020;21.378;2023-01-30T00:10:15;41.17;;;20.17;;
63112;SDS011;49206;48.020;21.378;2023-01-30T00:11:19;36.55;;;17.95;;
63112;SDS011;49206;48.020;21.378;2023-01-30T00:12:22;35.47;;;18.73;;
63112;SDS011;49206;48.020;21.378;2023-01-30T00:13:25;39.78;;;20.15;;
63112;SDS011;49206;48.020;21.378;2023-01-30T00:14:28;41.10;;;19.50;;
63112;SDS011;49206;48.020;21.378;2023-01-30T00:15:31;40.45;;;19.92;;
63112;SDS011;49206;48.020;21.378;2023-01-30T00:16:33;38.17;;;18.02;;
63112;SDS011;49206;48.020;21.378;2023-01-30T00:17:36;39.03;;;18.77;;
63112;SDS011;49206;48.020;21.378;2023-01-30T00:18:40;36.25;;;18.98;;
63112;SDS011;49206;48.020;21.378;2023-01-30T00:19:43;38.33;;;19.83;;
63112;SDS011;49206;48.020;21.378;2023-01-30T00:20:45;38.17;;;18.95;;
63112;SDS011;49206;48.020;21.378;2023-01-30T00:21:48;36.95;;;18.92;;
63112;SDS011;49206;48.020;21.378;2023-01-30T00:22:50;37.22;;;17.67;;
63112;SDS011;49206;48.020;21.378;2023-01-30T00:24:01;40.78;;;20.38;;
63112;SDS011;49206;48.020;21.378;2023-01-30T00:25:04;39.30;;;19.10;;
63112;SDS011;49206;48.020;21.378;2023-01-30T00:26:07;38.20;;;18.55;;
63112;SDS011;49206;48.020;21.378;2023-01-30T00:27:12;36.53;;;18.23;;
63112;SDS011;49206;48.020;21.378;2023-01-30T00:28:14;35.67;;;18.48;;
63112;SDS011;49206;48.020;21.378;2023-01-30T00:29:17;42.40;;;20.15;;
63112;SDS011;49206;48.020;21.378;2023-01-30T00:30:19;36.30;;;18.92;;
63112;SDS011;49206;48.020;21.378;2023-01-30T00:31:22;37.47;;;20.08;;
63112;SDS011;49206;48.020;21.378;2023-01-30T00:32:24;38.60;;;19.90;;
63112;SDS011;49206;48.020;21.378;2023-01-30T00:33:31;43.63;;;20.25;;
63112;SDS011;49206;48.020;21.378;2023-01-30T00:34:33;39.33;;;18.90;;
63112;SDS011;49206;48.020;21.378;2023-01-30T00:35:36;39.85;;;19.92;;
63112;SDS011;49206;48.020;21.378;2023-01-30T00:36:38;38.72;;;18.98;;
63112;SDS011;49206;48.020;21.378;2023-01-30T00:37:41;40.83;;;19.75;;
63112;SDS011;49206;48.020;21.378;2023-01-30T00:38:44;40.75;;;19.48;;
63112;SDS011;49206;48.020;21.378;2023-01-30T00:39:46;36.10;;;19.13;;
63112;SDS011;49206;48.020;21.378;2023-01-30T00:40:49;42.85;;;20.98;;
63112;SDS011;49206;48.020;21.378;2023-01-30T00:41:52;39.20;;;18.75;;
63112;SDS011;49206;48.020;21.378;2023-01-30T00:43:14;38.95;;;19.13;;
63112;SDS011;49206;48.020;21.378;2023-01-30T00:44:37;36.90;;;18.58;;
63112;SDS011;49206;48.020;21.378;2023-01-30T00:45:58;34.45;;;17.63;;
63112;SDS011;49206;48.020;21.378;2023-01-30T00:47:20;31.65;;;16.50;;
63112;SDS011;49206;48.020;21.378;2023-01-30T00:48:27;41.40;;;19.65;;
63112;SDS011;49206;48.020;21.378;2023-01-30T00:49:31;38.78;;;20.42;;
63112;SDS011;49206;48.020;21.378;2023-01-30T00:50:33;36.88;;;17.75;;
63112;SDS011;49206;48.020;21.378;2023-01-30T00:51:48;39.20;;;19.40;;
63112;SDS011;49206;48.020;21.378;2023-01-30T00:52:50;36.10;;;18.10;;
63112;SDS011;49206;48.020;21.378;2023-01-30T00:53:53;35.47;;;18.35;;
63112;SDS011;49206;48.020;21.378;2023-01-30T00:54:55;39.15;;;19.20;;
63112;SDS011;49206;48.020;21.378;2023-01-30T00:55:58;35.97;;;18.95;;
63112;SDS011;49206;48.020;21.378;2023-01-30T00:57:00;39.00;;;18.45;;
63112;SDS011;49206;48.020;21.378;2023-01-30T00:58:03;37.92;;;19.50;;
63112;SDS011;49206;48.020;21.378;2023-01-30T00:59:05;36.92;;;19.33;;
63112;SDS011;49206;48.020;21.378;2023-01-30T01:00:08;39.35;;;19.00;;
63112;SDS011;49206;48.020;21.378;2023-01-30T01:01:14;35.65;;;17.35;;
63112;SDS011;49206;48.020;21.378;2023-01-30T01:02:17;34.80;;;16.42;;
63112;SDS011;49206;48.020;21.378;2023-01-30T01:03:20;39.78;;;19.40;;
63112;SDS011;49206;48.020;21.378;2023-01-30T01:04:22;34.25;;;18.33;;
63112;SDS011;49206;48.020;21.378;2023-01-30T01:05:25;37.08;;;18.38;;
63112;SDS011;49206;48.020;21.378;2023-01-30T01:06:28;39.25;;;18.80;;
63112;SDS011;49206;48.020;21.378;2023-01-30T01:07:31;34.63;;;17.90;;
63112;SDS011;49206;48.020;21.378;2023-01-30T01:08:34;39.20;;;19.17;;
63112;SDS011;49206;48.020;21.378;2023-01-30T01:09:36;33.65;;;18.05;;
63112;SDS011;49206;48.020;21.378;2023-01-30T01:10:39;38.53;;;19.90;;
63112;SDS011;49206;48.020;21.378;2023-01-30T01:11:42;36.72;;;17.20;;
63112;SDS011;49206;48.020;21.378;2023-01-30T01:12:45;37.53;;;18.80;;
63112;SDS011;49206;48.020;21.378;2023-01-30T01:13:48;38.85;;;19.80;;
63112;SDS011;49206;48.020;21.378;2023-01-30T01:14:51;38.42;;;19.23;;
63112;SDS011;49206;48.020;21.378;2023-01-30T01:15:53;32.95;;;16.88;;
63112;SDS011;49206;48.020;21.378;2023-01-30T01:16:56;38.65;;;17.73;;
63112;SDS011;49206;48.020;21.378;2023-01-30T01:18:00;38.25;;;19.17;;
63112;SDS011;49206;48.020;21.378;2023-01-30T01:19:02;37.28;;;16.35;;
63112;SDS011;49206;48.020;21.378;2023-01-30T01:20:05;34.03;;;18.70;;
63112;SDS011;49206;48.020;21.378;2023-01-30T01:21:08;35.63;;;18.08;;
63112;SDS011;49206;48.020;21.378;2023-01-30T01:22:11;36.35;;;18.25;;
63112;SDS011;49206;48.020;21.378;2023-01-30T01:23:13;37.08;;;18.60;;
63112;SDS011;49206;48.020;21.378;2023-01-30T01:24:16;38.05;;;18.65;;
63112;SDS011;49206;48.020;21.378;2023-01-30T01:25:19;35.42;;;19.02;;
63112;SDS011;49206;48.020;21.378;2023-01-30T01:26:22;35.08;;;17.95;;
63112;SDS011;49206;48.020;21.378;2023-01-30T01:27:25;34.90;;;18.83;;
63112;SDS011;49206;48.020;21.378;2023-01-30T01:28:28;37.95;;;18.60;;
63112;SDS011;49206;48.020;21.378;2023-01-30T01:29:30;36.10;;;17.40;;
63112;SDS011;49206;48.020;21.378;2023-01-30T01:30:33;34.03;;;17.58;;
63112;SDS011;49206;48.020;21.378;2023-01-30T01:31:35;33.90;;;17.40;;
63112;SDS011;49206;48.020;21.378;2023-01-30T01:32:38;35.17;;;18.45;;
63112;SDS011;49206;48.020;21.378;2023-01-30T01:33:43;31.73;;;16.55;;
63112;SDS011;49206;48.020;21.378;2023-01-30T01:34:45;34.05;;;18.23;;
63112;SDS011;49206;48.020;21.378;2023-01-30T01:35:48;34.08;;;17.92;;
63112;SDS011;49206;48.020;21.378;2023-01-30T01:36:50;35.33;;;17.13;;
63112;SDS011;49206;48.020;21.378;2023-01-30T01:37:55;34.80;;;15.98;;
63112;SDS011;49206;48.020;21.378;2023-01-30T01:38:58;34.13;;;18.23;;
63112;SDS011;49206;48.020;21.378;2023-01-30T01:40:00;36.40;;;18.95;;
63112;SDS011;49206;48.020;21.378;2023-01-30T01:41:21;30.50;;;16.83;;
63112;SDS011;49206;48.020;21.378;2023-01-30T01:42:24;33.30;;;17.17;;
63112;SDS011;49206;48.020;21.378;2023-01-30T01:44:16;32.10;;;17.23;;
63112;SDS011;49206;48.020;21.378;2023-01-30T01:46:17;36.45;;;16.95;;
63112;SDS011;49206;48.020;21.378;2023-01-30T01:47:23;33.75;;;15.98;;
63112;SDS011;49206;48.020;21.378;2023-01-30T01:48:26;32.63;;;16.90;;
63112;SDS011;49206;48.020;21.378;2023-01-30T01:49:32;35.55;;;17.88;;
63112;SDS011;49206;48.020;21.378;2023-01-30T01:53:12;28.50;;;15.35;;
63112;SDS011;49206;48.020;21.378;2023-01-30T01:55:40;34.78;;;16.80;;
63112;SDS011;49206;48.020;21.378;2023-01-30T01:56:45;31.25;;;16.52;;
63112;SDS011;49206;48.020;21.378;2023-01-30T01:57:53;32.92;;;16.15;;
63112;SDS011;49206;48.020;21.378;2023-01-30T01:59:06;31.85;;;16.58;;
63112;SDS011;49206;48.020;21.378;2023-01-30T02:00:14;30.08;;;16.15;;
63112;SDS011;49206;48.020;21.378;2023-01-30T02:01:18;28.60;;;16.20;;
63112;SDS011;49206;48.020;21.378;2023-01-30T02:02:21;32.80;;;16.88;;
63112;SDS011;49206;48.020;21.378;2023-01-30T02:03:25;34.15;;;15.85;;
63112;SDS011;49206;48.020;21.378;2023-01-30T02:04:31;32.20;;;16.80;;
63112;SDS011;49206;48.020;21.378;2023-01-30T02:05:54;33.50;;;16.58;;
63112;SDS011;49206;48.020;21.378;2023-01-30T02:06:59;33.80;;;16.33;;
63112;SDS011;49206;48.020;21.378;2023-01-30T02:08:04;31.48;;;15.82;;
63112;SDS011;49206;48.020;21.378;2023-01-30T02:09:12;27.58;;;14.75;;
63112;SDS011;49206;48.020;21.378;2023-01-30T02:10:18;31.20;;;15.60;;
63112;SDS011;49206;48.020;21.378;2023-01-30T02:11:29;30.48;;;14.57;;
63112;SDS011;49206;48.020;21.378;2023-01-30T02:12:38;36.28;;;16.63;;
63112;SDS011;49206;48.020;21.378;2023-01-30T02:13:43;26.50;;;14.70;;
63112;SDS011;49206;48.020;21.378;2023-01-30T02:14:47;33.33;;;16.55;;
63112;SDS011;49206;48.020;21.378;2023-01-30T02:15:50;32.92;;;17.05;;
63112;SDS011;49206;48.020;21.378;2023-01-30T02:16:53;31.40;;;16.10;;
63112;SDS011;49206;48.020;21.378;2023-01-30T02:17:56;30.50;;;15.82;;
63112;SDS011;49206;48.020;21.378;2023-01-30T02:18:59;31.45;;;14.27;;
63112;SDS011;49206;48.020;21.378;2023-01-30T02:20:22;30.77;;;17.52;;
63112;SDS011;49206;48.020;21.378;2023-01-30T02:21:50;28.25;;;16.00;;
63112;SDS011;49206;48.020;21.378;2023-01-30T02:27:02;31.45;;;14.68;;
63112;SDS011;49206;48.020;21.378;2023-01-30T02:30:01;26.98;;;13.35;;
63112;SDS011;49206;48.020;21.378;2023-01-30T02:34:42;26.83;;;14.85;;
63112;SDS011;49206;48.020;21.378;2023-01-30T02:35:58;33.30;;;15.90;;
63112;SDS011;49206;48.020;21.378;2023-01-30T02:43:32;26.65;;;15.00;;
63112;SDS011;49206;48.020;21.378;2023-01-30T02:45:35;29.20;;;14.18;;
63112;SDS011;49206;48.020;21.378;2023-01-30T02:48:56;26.92;;;13.10;;
63112;SDS011;49206;48.020;21.378;2023-01-30T02:50:01;30.50;;;14.52;;
63112;SDS011;49206;48.020;21.378;2023-01-30T02:52:31;28.25;;;14.45;;
63112;SDS011;49206;48.020;21.378;2023-01-30T02:53:35;30.45;;;15.75;;
63112;SDS011;49206;48.020;21.378;2023-01-30T02:54:38;29.38;;;15.25;;
63112;SDS011;49206;48.020;21.378;2023-01-30T02:55:41;31.02;;;15.95;;
63112;SDS011;49206;48.020;21.378;2023-01-30T02:56:46;29.77;;;16.33;;
63112;SDS011;49206;48.020;21.378;2023-01-30T02:57:49;29.40;;;15.68;;
63112;SDS011;49206;48.020;21.378;2023-01-30T02:58:56;28.20;;;14.65;;
63112;SDS011;49206;48.020;21.378;2023-01-30T03:00:04;27.15;;;15.40;;
63112;SDS011;49206;48.020;21.378;2023-01-30T03:06:20;32.88;;;16.10;;
63112;SDS011;49206;48.020;21.378;2023-01-30T03:09:21;32.72;;;16.98;;
63112;SDS011;49206;48.020;21.378;2023-01-30T03:10:08;31.88;;;16.38;;
63112;SDS011;49206;48.020;21.378;2023-01-30T03:11:29;35.63;;;16.80;;
63112;SDS011;49206;48.020;21.378;2023-01-30T03:12:47;34.85;;;17.33;;
63112;SDS011;49206;48.020;21.378;2023-01-30T03:14:01;33.55;;;17.65;;
63112;SDS011;49206;48.020;21.378;2023-01-30T03:15:11;32.83;;;16.20;;
63112;SDS011;49206;48.020;21.378;2023-01-30T03:17:32;37.53;;;18.65;;
63112;SDS011;49206;48.020;21.378;2023-01-30T03:18:39;36.65;;;16.98;;
63112;SDS011;49206;48.020;21.378;2023-01-30T03:19:42;36.30;;;18.10;;
63112;SDS011;49206;48.020;21.378;2023-01-30T03:20:45;37.25;;;18.10;;
63112;SDS011;49206;48.020;21.378;2023-01-30T03:21:48;35.55;;;18.15;;
63112;SDS011;49206;48.020;21.378;2023-01-30T03:22:52;32.97;;;17.48;;
63112;SDS011;49206;48.020;21.378;2023-01-30T03:23:55;36.22;;;17.70;;
63112;SDS011;49206;48.020;21.378;2023-01-30T03:24:57;34.47;;;17.27;;
63112;SDS011;49206;48.020;21.378;2023-01-30T03:26:01;33.45;;;18.80;;
63112;SDS011;49206;48.020;21.378;2023-01-30T03:27:08;36.83;;;19.02;;
63112;SDS011;49206;48.020;21.378;2023-01-30T03:28:13;34.65;;;18.90;;
63112;SDS011;49206;48.020;21.378;2023-01-30T03:29:19;33.75;;;17.02;;
63112;SDS011;49206;48.020;21.378;2023-01-30T03:30:23;37.28;;;17.77;;
63112;SDS011;49206;48.020;21.378;2023-01-30T03:31:34;32.75;;;17.08;;
63112;SDS011;49206;48.020;21.378;2023-01-30T03:32:37;37.88;;;18.88;;
63112;SDS011;49206;48.020;21.378;2023-01-30T03:33:41;36.03;;;17.70;;
63112;SDS011;49206;48.020;21.378;2023-01-30T03:34:43;34.47;;;16.88;;
63112;SDS011;49206;48.020;21.378;2023-01-30T03:35:46;31.95;;;16.27;;
63112;SDS011;49206;48.020;21.378;2023-01-30T03:36:49;32.35;;;16.13;;
63112;SDS011;49206;48.020;21.378;2023-01-30T03:37:52;33.55;;;18.27;;
63112;SDS011;49206;48.020;21.378;2023-01-30T03:38:55;34.33;;;17.42;;
63112;SDS011;49206;48.020;21.378;2023-01-30T03:39:59;32.33;;;16.85;;
63112;SDS011;49206;48.020;21.378;2023-01-30T03:41:02;31.92;;;16.80;;
63112;SDS011;49206;48.020;21.378;2023-01-30T03:42:07;35.05;;;18.10;;
63112;SDS011;49206;48.020;21.378;2023-01-30T03:44:13;31.88;;;16.20;;
63112;SDS011;49206;48.020;21.378;2023-01-30T03:45:16;31.25;;;16.48;;
63112;SDS011;49206;48.020;21.378;2023-01-30T03:46:21;33.63;;;16.25;;
63112;SDS011;49206;48.020;21.378;2023-01-30T03:47:23;32.70;;;16.38;;
63112;SDS011;49206;48.020;21.378;2023-01-30T03:48:26;33.67;;;16.20;;
63112;SDS011;49206;48.020;21.378;2023-01-30T03:49:30;40.03;;;17.38;;
63112;SDS011;49206;48.020;21.378;2023-01-30T03:50:32;32.85;;;16.30;;
63112;SDS011;49206;48.020;21.378;2023-01-30T03:51:35;30.60;;;15.52;;
63112;SDS011;49206;48.020;21.378;2023-01-30T03:52:37;33.33;;;17.23;;
63112;SDS011;49206;48.020;21.378;2023-01-30T03:53:44;35.22;;;16.98;;
63112;SDS011;49206;48.020;21.378;2023-01-30T03:54:47;29.25;;;15.10;;
63112;SDS011;49206;48.020;21.378;2023-01-30T03:55:49;30.13;;;15.80;;
63112;SDS011;49206;48.020;21.378;2023-01-30T03:56:57;29.15;;;15.73;;
63112;SDS011;49206;48.020;21.378;2023-01-30T03:58:00;31.05;;;16.02;;
63112;SDS011;49206;48.020;21.378;2023-01-30T03:59:05;32.13;;;16.52;;
63112;SDS011;49206;48.020;21.378;2023-01-30T04:00:17;30.60;;;15.77;;
63112;SDS011;49206;48.020;21.378;2023-01-30T04:01:23;33.88;;;15.73;;
63112;SDS011;49206;48.020;21.378;2023-01-30T04:02:26;32.92;;;15.63;;
63112;SDS011;49206;48.020;21.378;2023-01-30T04:03:31;27.65;;;15.20;;
63112;SDS011;49206;48.020;21.378;2023-01-30T04:04:34;29.80;;;14.30;;
63112;SDS011;49206;48.020;21.378;2023-01-30T04:05:39;33.47;;;16.25;;
63112;SDS011;49206;48.020;21.378;2023-01-30T04:06:43;27.40;;;14.18;;
63112;SDS011;49206;48.020;21.378;2023-01-30T04:07:46;27.65;;;15.45;;
63112;SDS011;49206;48.020;21.378;2023-01-30T04:08:51;25.63;;;12.70;;
63112;SDS011;49206;48.020;21.378;2023-01-30T04:10:15;29.63;;;14.05;;
63112;SDS011;49206;48.020;21.378;2023-01-30T04:11:20;28.75;;;15.00;;
63112;SDS011;49206;48.020;21.378;2023-01-30T04:12:23;31.67;;;15.13;;
63112;SDS011;49206;48.020;21.378;2023-01-30T04:13:29;29.08;;;14.27;;
63112;SDS011;49206;48.020;21.378;2023-01-30T04:14:32;25.02;;;13.82;;
63112;SDS011;49206;48.020;21.378;2023-01-30T04:15:47;29.67;;;14.43;;
63112;SDS011;49206;48.020;21.378;2023-01-30T04:17:28;28.48;;;14.38;;
63112;SDS011;49206;48.020;21.378;2023-01-30T04:18:53;26.83;;;12.85;;
63112;SDS011;49206;48.020;21.378;2023-01-30T04:19:58;26.27;;;12.90;;
63112;SDS011;49206;48.020;21.378;2023-01-30T04:21:12;29.30;;;14.75;;
63112;SDS011;49206;48.020;21.378;2023-01-30T04:22:15;28.30;;;14.18;;
63112;SDS011;49206;48.020;21.378;2023-01-30T04:23:18;26.17;;;14.05;;
63112;SDS011;49206;48.020;21.378;2023-01-30T04:24:21;26.73;;;13.38;;
63112;SDS011;49206;48.020;21.378;2023-01-30T04:25:24;29.75;;;14.00;;
63112;SDS011;49206;48.020;21.378;2023-01-30T04:26:26;30.27;;;14.70;;
63112;SDS011;49206;48.020;21.378;2023-01-30T04:27:29;28.40;;;13.68;;
63112;SDS011;49206;48.020;21.378;2023-01-30T04:28:46;28.88;;;13.35;;
63112;SDS011;49206;48.020;21.378;2023-01-30T04:29:48;24.40;;;12.98;;
63112;SDS011;49206;48.020;21.378;2023-01-30T04:30:53;31.92;;;15.45;;
63112;SDS011;49206;48.020;21.378;2023-01-30T04:32:17;26.55;;;13.35;;
63112;SDS011;49206;48.020;21.378;2023-01-30T04:33:20;27.92;;;15.00;;
63112;SDS011;49206;48.020;21.378;2023-01-30T04:34:22;25.30;;;12.52;;
63112;SDS011;49206;48.020;21.378;2023-01-30T04:35:25;30.60;;;14.55;;
63112;SDS011;49206;48.020;21.378;2023-01-30T04:36:28;27.83;;;13.98;;
63112;SDS011;49206;48.020;21.378;2023-01-30T04:37:30;29.60;;;15.45;;
63112;SDS011;49206;48.020;21.378;2023-01-30T04:38:33;27.67;;;14.02;;
63112;SDS011;49206;48.020;21.378;2023-01-30T04:39:37;29.60;;;13.50;;
63112;SDS011;49206;48.020;21.378;2023-01-30T04:40:46;21.73;;;12.57;;
63112;SDS011;49206;48.020;21.378;2023-01-30T04:41:49;26.13;;;13.40;;
63112;SDS011;49206;48.020;21.378;2023-01-30T04:42:52;19.30;;;11.82;;
63112;SDS011;49206;48.020;21.378;2023-01-30T04:44:13;26.42;;;14.13;;
63112;SDS011;49206;48.020;21.378;2023-01-30T04:45:44;26.85;;;13.90;;
63112;SDS011;49206;48.020;21.378;2023-01-30T04:46:47;30.33;;;14.88;;
63112;SDS011;49206;48.020;21.378;2023-01-30T04:47:50;31.90;;;13.45;;
63112;SDS011;49206;48.020;21.378;2023-01-30T04:48:54;28.75;;;13.25;;
63112;SDS011;49206;48.020;21.378;2023-01-30T04:49:56;29.40;;;15.32;;
63112;SDS011;49206;48.020;21.378;2023-01-30T04:50:59;27.85;;;13.68;;
63112;SDS011;49206;48.020;21.378;2023-01-30T04:52:02;29.63;;;14.90;;
63112;SDS011;49206;48.020;21.378;2023-01-30T04:53:04;30.67;;;15.98;;
63112;SDS011;49206;48.020;21.378;2023-01-30T04:54:07;27.88;;;14.50;;
63112;SDS011;49206;48.020;21.378;2023-01-30T04:55:10;26.20;;;13.27;;
63112;SDS011;49206;48.020;21.378;2023-01-30T04:56:12;28.08;;;14.18;;
63112;SDS011;49206;48.020;21.378;2023-01-30T04:57:15;30.83;;;14.93;;
63112;SDS011;49206;48.020;21.378;2023-01-30T04:58:19;29.48;;;14.45;;
63112;SDS011;49206;48.020;21.378;2023-01-30T04:59:21;31.35;;;16.35;;
63112;SDS011;49206;48.020;21.378;2023-01-30T05:00:25;29.48;;;14.23;;
63112;SDS011;49206;48.020;21.378;2023-01-30T05:01:34;29.50;;;15.65;;
63112;SDS011;49206;48.020;21.378;2023-01-30T05:02:38;27.05;;;12.95;;
63112;SDS011;49206;48.020;21.378;2023-01-30T05:03:40;24.80;;;13.15;;
63112;SDS011;49206;48.020;21.378;2023-01-30T05:04:44;29.17;;;13.55;;
63112;SDS011;49206;48.020;21.378;2023-01-30T05:05:46;27.48;;;13.77;;
63112;SDS011;49206;48.020;21.378;2023-01-30T05:06:49;33.13;;;15.30;;
63112;SDS011;49206;48.020;21.378;2023-01-30T05:07:52;25.50;;;12.15;;
63112;SDS011;49206;48.020;21.378;2023-01-30T05:08:56;34.10;;;15.50;;
63112;SDS011;49206;48.020;21.378;2023-01-30T05:09:59;28.65;;;14.18;;
63112;SDS011;49206;48.020;21.378;2023-01-30T05:11:03;23.10;;;11.23;;
63112;SDS011;49206;48.020;21.378;2023-01-30T05:12:06;30.77;;;15.25;;
63112;SDS011;49206;48.020;21.378;2023-01-30T05:13:08;30.02;;;14.98;;
63112;SDS011;49206;48.020;21.378;2023-01-30T05:14:11;28.52;;;13.10;;
63112;SDS011;49206;48.020;21.378;2023-01-30T05:15:13;26.95;;;12.32;;
63112;SDS011;49206;48.020;21.378;2023-01-30T05:16:17;23.40;;;11.95;;
63112;SDS011;49206;48.020;21.378;2023-01-30T05:17:20;27.02;;;13.88;;
63112;SDS011;49206;48.020;21.378;2023-01-30T05:18:22;31.00;;;14.63;;
63112;SDS011;49206;48.020;21.378;2023-01-30T05:19:25;30.58;;;15.13;;
63112;SDS011;49206;48.020;21.378;2023-01-30T05:20:27;35.50;;;17.33;;
63112;SDS011;49206;48.020;21.378;2023-01-30T05:21:30;29.88;;;14.20;;
63112;SDS011;49206;48.020;21.378;2023-01-30T05:22:32;28.40;;;15.10;;
63112;SDS011;49206;48.020;21.378;2023-01-30T05:23:35;31.33;;;14.75;;
63112;SDS011;49206;48.020;21.378;2023-01-30T05:24:37;27.42;;;14.10;;
63112;SDS011;49206;48.020;21.378;2023-01-30T05:25:40;30.40;;;15.38;;
63112;SDS011;49206;48.020;21.378;2023-01-30T05:26:42;32.63;;;15.82;;
63112;SDS011;49206;48.020;21.378;2023-01-30T05:27:45;29.35;;;13.63;;
63112;SDS011;49206;48.020;21.378;2023-01-30T05:28:54;30.70;;;14.45;;
63112;SDS011;49206;48.020;21.378;2023-01-30T05:29:57;25.58;;;14.05;;
63112;SDS011;49206;48.020;21.378;2023-01-30T05:31:03;30.58;;;14.85;;
63112;SDS011;49206;48.020;21.378;2023-01-30T05:32:10;26.90;;;14.40;;
63112;SDS011;49206;48.020;21.378;2023-01-30T05:33:15;26.42;;;13.82;;
63112;SDS011;49206;48.020;21.378;2023-01-30T05:34:17;28.48;;;14.05;;
63112;SDS011;49206;48.020;21.378;2023-01-30T05:35:20;28.70;;;15.50;;
63112;SDS011;49206;48.020;21.378;2023-01-30T05:36:22;31.17;;;13.90;;
63112;SDS011;49206;48.020;21.378;2023-01-30T05:37:25;30.35;;;15.05;;
63112;SDS011;49206;48.020;21.378;2023-01-30T05:38:28;31.95;;;16.13;;
63112;SDS011;49206;48.020;21.378;2023-01-30T05:39:31;30.48;;;15.73;;
63112;SDS011;49206;48.020;21.378;2023-01-30T05:40:33;31.35;;;15.75;;
63112;SDS011;49206;48.020;21.378;2023-01-30T05:41:35;29.80;;;14.70;;
63112;SDS011;49206;48.020;21.378;2023-01-30T05:42:38;32.42;;;15.45;;
63112;SDS011;49206;48.020;21.378;2023-01-30T05:43:40;32.13;;;15.77;;
63112;SDS011;49206;48.020;21.378;2023-01-30T05:44:43;32.58;;;15.25;;
63112;SDS011;49206;48.020;21.378;2023-01-30T05:45:50;33.00;;;16.13;;
63112;SDS011;49206;48.020;21.378;2023-01-30T05:46:54;30.67;;;15.73;;
63112;SDS011;49206;48.020;21.378;2023-01-30T05:47:57;30.60;;;14.25;;
63112;SDS011;49206;48.020;21.378;2023-01-30T05:49:02;31.63;;;15.63;;
63112;SDS011;49206;48.020;21.378;2023-01-30T05:50:05;27.70;;;14.57;;
63112;SDS011;49206;48.020;21.378;2023-01-30T05:51:15;29.25;;;14.88;;
63112;SDS011;49206;48.020;21.378;2023-01-30T05:52:18;35.53;;;16.13;;
63112;SDS011;49206;48.020;21.378;2023-01-30T05:53:21;33.42;;;16.08;;
63112;SDS011;49206;48.020;21.378;2023-01-30T05:54:24;20.85;;;13.18;;
63112;SDS011;49206;48.020;21.378;2023-01-30T05:55:27;34.45;;;19.13;;
63112;SDS011;49206;48.020;21.378;2023-01-30T05:56:29;35.28;;;18.42;;
63112;SDS011;49206;48.020;21.378;2023-01-30T05:57:35;36.40;;;18.33;;
63112;SDS011;49206;48.020;21.378;2023-01-30T05:58:37;38.90;;;17.90;;
63112;SDS011;49206;48.020;21.378;2023-01-30T05:59:40;33.05;;;18.27;;
63112;SDS011;49206;48.020;21.378;2023-01-30T06:00:42;38.40;;;18.77;;
63112;SDS011;49206;48.020;21.378;2023-01-30T06:01:44;33.40;;;17.55;;
63112;SDS011;49206;48.020;21.378;2023-01-30T06:02:47;40.72;;;19.00;;
63112;SDS011;49206;48.020;21.378;2023-01-30T06:03:50;36.05;;;17.20;;
63112;SDS011;49206;48.020;21.378;2023-01-30T06:04:53;26.58;;;14.98;;
63112;SDS011;49206;48.020;21.378;2023-01-30T06:05:55;32.88;;;17.83;;
63112;SDS011;49206;48.020;21.378;2023-01-30T06:06:58;34.47;;;16.90;;
63112;SDS011;49206;48.020;21.378;2023-01-30T06:08:00;37.63;;;17.85;;
63112;SDS011;49206;48.020;21.378;2023-01-30T06:09:03;37.53;;;18.73;;
63112;SDS011;49206;48.020;21.378;2023-01-30T06:10:05;38.33;;;19.42;;
63112;SDS011;49206;48.020;21.378;2023-01-30T06:11:10;33.53;;;17.73;;
63112;SDS011;49206;48.020;21.378;2023-01-30T06:12:14;37.38;;;16.67;;
63112;SDS011;49206;48.020;21.378;2023-01-30T06:13:17;34.50;;;17.60;;
63112;SDS011;49206;48.020;21.378;2023-01-30T06:14:19;37.33;;;15.00;;
63112;SDS011;49206;48.020;21.378;2023-01-30T06:15:21;33.78;;;16.52;;
63112;SDS011;49206;48.020;21.378;2023-01-30T06:16:24;35.08;;;17.25;;
63112;SDS011;49206;48.020;21.378;2023-01-30T06:17:26;36.47;;;16.58;;
63112;SDS011;49206;48.020;21.378;2023-01-30T06:18:31;36.80;;;18.27;;
63112;SDS011;49206;48.020;21.378;2023-01-30T06:19:33;34.08;;;16.33;;
63112;SDS011;49206;48.020;21.378;2023-01-30T06:20:36;37.80;;;18.88;;
63112;SDS011;49206;48.020;21.378;2023-01-30T06:21:39;39.92;;;19.00;;
63112;SDS011;49206;48.020;21.378;2023-01-30T06:22:41;33.75;;;18.48;;
63112;SDS011;49206;48.020;21.378;2023-01-30T06:23:44;32.25;;;17.10;;
63112;SDS011;49206;48.020;21.378;2023-01-30T06:24:47;36.03;;;18.38;;
63112;SDS011;49206;48.020;21.378;2023-01-30T06:25:50;34.10;;;17.05;;
63112;SDS011;49206;48.020;21.378;2023-01-30T06:26:53;32.60;;;16.13;;
63112;SDS011;49206;48.020;21.378;2023-01-30T06:27:56;34.70;;;18.65;;
63112;SDS011;49206;48.020;21.378;2023-01-30T06:28:58;22.77;;;13.50;;
63112;SDS011;49206;48.020;21.378;2023-01-30T06:30:01;30.60;;;15.82;;
63112;SDS011;49206;48.020;21.378;2023-01-30T06:31:06;31.65;;;16.20;;
63112;SDS011;49206;48.020;21.378;2023-01-30T06:32:09;32.08;;;18.38;;
63112;SDS011;49206;48.020;21.378;2023-01-30T06:33:12;32.65;;;16.50;;
63112;SDS011;49206;48.020;21.378;2023-01-30T06:34:15;25.65;;;15.52;;
63112;SDS011;49206;48.020;21.378;2023-01-30T06:35:17;31.02;;;15.85;;
63112;SDS011;49206;48.020;21.378;2023-01-30T06:36:20;36.47;;;18.38;;
63112;SDS011;49206;48.020;21.378;2023-01-30T06:37:23;30.05;;;15.25;;
63112;SDS011;49206;48.020;21.378;2023-01-30T06:38:25;30.20;;;16.73;;
63112;SDS011;49206;48.020;21.378;2023-01-30T06:39:28;30.02;;;15.63;;
63112;SDS011;49206;48.020;21.378;2023-01-30T06:40:30;32.05;;;15.70;;
63112;SDS011;49206;48.020;21.378;2023-01-30T06:41:33;32.40;;;15.55;;
63112;SDS011;49206;48.020;21.378;2023-01-30T06:42:35;36.38;;;17.27;;
63112;SDS011;49206;48.020;21.378;2023-01-30T06:43:38;34.97;;;16.92;;
63112;SDS011;49206;48.020;21.378;2023-01-30T06:44:42;33.42;;;17.75;;
63112;SDS011;49206;48.020;21.378;2023-01-30T06:45:45;33.60;;;18.50;;
63112;SDS011;49206;48.020;21.378;2023-01-30T06:46:48;34.92;;;18.08;;
63112;SDS011;49206;48.020;21.378;2023-01-30T06:47:51;35.22;;;19.63;;
63112;SDS011;49206;48.020;21.378;2023-01-30T06:48:54;29.80;;;15.77;;